• Join FlightAware (Why Join?)
  • Login
  • US Flag 
11:55AM EDT


 

Airport Tracker/Info


-or-


 

Live Flight TrackerFlight Track Log ✈ UAL5669 ✈ 27-May-2013 ✈ KGSP - KEWR

Flight Track Log - Related Links

Times and Time Zones

All times are in EDT time to prevent confusion due to time zone crossing. See the UAL5669 flight status page for this flight to view local times or setup timezone preferences in your user account.

Time Position Orientation Groundspeed Altitude Reporting Facility
EDT Latitude Longitude Course Direction KTS MPH feet Rate Location/Type
06:09AM 34.9611 -82.1608 360° North 221 254 4,500  Level Atlanta Center
06:10AM 34.9831 -82.0969 67° East 238 274 6,500 2,040 Climbing Atlanta Center
06:11AM 35.1159 -81.9167 North  Level FlightAware Approximate
06:11AM 35.0069 -82.0203 69° East 238 274 8,600  Level Atlanta Center
06:12AM 35.2091 -81.9333 North  Level FlightAware Approximate
06:12AM 35.0472 -81.9406 58° Northeast 255 293 10,400  Level Atlanta Center
06:13AM 35.3037 -81.9333 North  Level FlightAware Approximate
06:13AM 35.1306 -81.9333 North 238 274 11,400  Level Atlanta Center
06:14AM 35.3984 -81.9333 360° North  Level FlightAware Approximate
06:14AM 35.2225 -81.9386 357° North 294 338 12,600  Level Atlanta Center
06:15AM 35.3267 -81.9283 North 325 374 14,100 1,500 Climbing Atlanta Center
06:16AM 35.3936 -81.8275 51° Northeast 351 404 15,600 1,500 Climbing Atlanta Center
06:17AM 35.4333 -81.7092 68° East 353 406 17,100 1,320 Climbing Atlanta Center
06:18AM 35.4769 -81.5881 66° East 372 428 18,300 1,320 Climbing Atlanta Center
06:19AM 35.5203 -81.4692 66° East 380 437 19,800 1,500 Climbing Atlanta Center
06:20AM 35.5617 -81.3506 67° East 380 437 21,300 1,440 Climbing Atlanta Center
06:21AM 35.6006 -81.2317 68° East 387 445 22,700 1,440 Climbing Atlanta Center
06:22AM 35.6478 -81.1075 65° Northeast 406 467 24,200 1,500 Climbing Atlanta Center
06:23AM 35.6947 -80.9781 66° East 396 456 25,700 1,380 Climbing Atlanta Center
06:24AM 35.7375 -80.8561 67° East 391 450 27,000 1,140 Climbing Atlanta Center
06:25AM 35.7842 -80.7289 66° East 385 443 28,000 960 Climbing Atlanta Center
06:27AM 35.8822 -80.4450 67° East 412 474 30,200 960 Climbing Washington Center
06:28AM 35.9272 -80.3119 67° East 412 474 31,200 1,020 Climbing Washington Center
06:29AM 35.9744 -80.1736 67° East 424 488 32,300 960 Climbing Washington Center
06:30AM 36.0253 -80.0428 64° Northeast 429 494 33,200 900 Climbing Washington Center
06:31AM 36.0822 -79.9125 62° Northeast 429 494 34,200 900 Climbing Washington Center
06:32AM 36.1533 -79.7903 54° Northeast 429 494 35,000 360 Climbing Washington Center
06:33AM 36.2244 -79.6628 55° Northeast 448 516 35,000  Level Washington Center
06:34AM 36.2911 -79.5450 55° Northeast 455 524 35,000  Level Washington Center
06:35AM 36.3686 -79.4097 55° Northeast 449 517 35,000 420 Level Washington Center
06:36AM 36.4286 -79.2939 57° Northeast 443 510 35,900 900 Climbing Washington Center
06:37AM 36.4969 -79.1706 55° Northeast 433 498 36,900 540 Climbing Washington Center
06:38AM 36.5736 -79.0422 53° Northeast 428 493 37,000  Climbing Washington Center
06:39AM 36.6442 -78.9158 55° Northeast 428 493 37,000  Level Washington Center
06:40AM 36.7103 -78.7864 57° Northeast 439 505 37,000  Level Washington Center
06:41AM 36.7825 -78.6597 55° Northeast 439 505 37,000  Level Washington Center
06:42AM 36.8622 -78.5539 47° Northeast 433 498 37,000  Level Washington Center
06:43AM 36.9436 -78.4686 40° Northeast 421 484 37,000  Level Washington Center
06:44AM 37.0336 -78.3706 41° Northeast 421 484 37,000  Level Washington Center
06:45AM 37.1233 -78.2747 40° Northeast 421 484 37,000  Level Washington Center
06:46AM 37.2153 -78.1764 40° Northeast 421 484 37,000  Level Washington Center
06:47AM 37.3028 -78.0800 41° Northeast 421 484 37,000  Level Washington Center
06:48AM 37.3903 -77.9811 42° Northeast 421 484 37,000  Level Washington Center
06:49AM 37.4756 -77.8869 41° Northeast 421 484 37,000  Level Washington Center
06:50AM 37.5669 -77.7953 38° Northeast 421 484 37,000  Level Washington Center
06:51AM 37.6603 -77.7089 36° Northeast 416 479 37,000  Level Washington Center
06:52AM 37.7536 -77.6272 35° Northeast 416 479 37,000  Level Washington Center
06:53AM 37.8444 -77.5431 36° Northeast 416 479 37,000  Level Washington Center
06:54AM 37.9378 -77.4586 36° Northeast 416 479 37,000  Level Washington Center
06:55AM 38.0308 -77.3711 37° Northeast 416 479 37,000  Level Washington Center
06:56AM 38.1194 -77.2914 35° Northeast 405 466 37,000  Level Washington Center
06:57AM 38.2103 -77.2064 36° Northeast 405 466 37,000  Level Washington Center
06:58AM 38.3011 -77.1236 36° Northeast 405 466 37,000  Level Washington Center
06:59AM 38.3897 -77.0406 36° Northeast 400 460 37,000  Level Washington Center
07:00AM 38.4803 -76.9550 36° Northeast 400 460 37,000 -60 Level Washington Center
07:01AM 38.5731 -76.8664 37° Northeast 400 460 36,900 -900 Descending Washington Center
07:02AM 38.6656 -76.7828 35° Northeast 400 460 35,200 -1,740 Descending Washington Center
07:03AM 38.7519 -76.6883 40° Northeast 405 466 33,500 -1,800 Descending Washington Center
07:04AM 38.8403 -76.5911 41° Northeast 411 473 31,700 -1,800 Descending Washington Center
07:05AM 38.9308 -76.4856 42° Northeast 417 480 29,900 -1,860 Descending Washington Center
07:06AM 39.0169 -76.3825 43° Northeast 417 480 28,100 -1,500 Descending Washington Center
07:07AM 39.1053 -76.2789 42° Northeast 422 486 27,000 -600 Descending Washington Center
07:08AM 39.1975 -76.1728 42° Northeast 427 491 27,000  Level Washington Center
07:09AM 39.2939 -76.0636 41° Northeast 440 506 27,000 -360 Level Washington Center
07:10AM 39.3881 -75.9542 42° Northeast 440 506 26,300 -1,080 Descending Washington Center
07:11AM 39.4778 -75.8497 42° Northeast 440 506 24,900 -1,440 Descending Washington Center
07:12AM 39.5656 -75.7450 43° Northeast 435 501 23,500 -1,440 Descending Washington Center
07:13AM 39.6553 -75.6372 43° Northeast 435 501 22,200 -1,380 Descending Washington Center
07:14AM 39.7406 -75.5347 43° Northeast 425 489 20,800 -1,620 Descending Washington Center
07:15AM 39.8239 -75.4375 42° Northeast 415 478 19,000 -1,920 Descending Washington Center
07:16AM 39.9050 -75.3372 43° Northeast 404 465 16,900 -2,400 Descending Washington Center
07:17AM 39.9922 -75.2314 43° Northeast 392 451 14,300 -2,280 Descending Washington Center
07:19AM 40.1000 -75.1000 43° Northeast 332 382 11,300 -1,500 Descending New York TRACON
07:20AM 40.1667 -75.0167 44° Northeast 264 304 10,500 -1,380 Descending New York TRACON
07:20AM 40.2000 -74.9667 49° Northeast 272 313 8,700 -1,440 Descending New York TRACON
07:21AM 40.2500 -74.9000 45° Northeast 273 314 8,000 -360 Descending New York TRACON
07:22AM 40.3167 -74.8167 44° Northeast 283 326 8,000 -240 Level New York TRACON
07:23AM 40.3667 -74.7500 45° Northeast 279 321 7,500 -780 Descending New York TRACON
07:24AM 40.4167 -74.6833 45° Northeast 277 319 6,600 -840 Descending New York TRACON
07:25AM 40.4833 -74.6500 21° North 264 304 6,000 -360 Descending New York TRACON
07:26AM 40.5500 -74.6333 11° North 259 298 6,000  Level New York TRACON
07:27AM 40.6167 -74.6167 11° North 258 297 6,000  Level New York TRACON
07:28AM 40.6833 -74.5833 21° North 262 302 6,000 -420 Level New York TRACON
07:29AM 40.7500 -74.5333 30° Northeast 272 313 5,300 -540 Descending New York TRACON
07:30AM 40.8000 -74.4833 37° Northeast 264 304 5,000 -180 Descending New York TRACON
07:31AM 40.8667 -74.4500 21° North 271 312 5,000 -360 Level New York TRACON
07:32AM 40.9000 -74.3667 62° Northeast 273 314 4,400 -900 Descending New York TRACON
07:33AM 40.9167 -74.2833 75° East 263 303 3,400 -720 Descending New York TRACON
07:34AM 40.9500 -74.1833 66° East 269 310 3,000 -240 Descending New York TRACON
07:35AM 40.9167 -74.1000 118° Southeast 268 308 3,000  Level New York TRACON
07:36AM 40.8667 -74.0500 143° Southeast 258 297 3,000  Level New York TRACON